Terminal Aerodrome Forecast
Issued by NWS

Home | Current Version | Previous Version | Text Only | Print | Product List | Glossary On
Versions: 1 2 3 4 5 6 7 8 9 10 11 12 13 14 15 16 17 18 19 20
476
FTUS43 KJKL 271120
TAFSME
TAF
KSME 271120Z 2712/2812 00000KT P6SM -SHRA SCT030 SCT070 BKN120
     FM271400 VRB03KT P6SM SCT035 SCT200
     FM271600 VRB05KT P6SM VCTS BKN050CB BKN150
     FM280300 VRB03KT 4SM BR VCTS SCT035CB BKN060=

USA.gov is the U.S. government's official web portal to all federal, state and local government web resources and services.